Abiquiu, New Mexico
Current Conditions -  °F | °C
As of 12:55 PM on Sunday 23 Nov 2014 (Local Time) from KLAM Reporting Station
Clear Clear  
Wind Chill: -2°   Ceiling: Unl
Heat Index:   Visibility: 10mi
Dew Point: -8°   Wind: 18mph
Humidity: 43%   Direction: 280°W
Pressure: 29.75"   Gusts: 41mph
Location:  36.21°N, 106.32°W
Report Text: KLAM 231955Z AUTO 28016G36KT 260V320 10SM CLR 03/M08 A2975 RMK AO2 T00331082
Loading
Personal Weather Stations






























Interactive Weather Map New forecast layout! Learn more

10-Day Weather Forecast

Advertisements
Track Severe Weather on mobile